sensor_id;sensor_type;location;lat;lon;timestamp;pressure;altitude;pressure_sealevel;temperature;humidity
39823;BME280;25499;53.958;10.970;2022-12-22T07:07:07;100081.34;;;5.81;100.00
39823;BME280;25499;53.958;10.970;2022-12-22T07:09:32;100081.34;;;5.84;100.00
39823;BME280;25499;53.958;10.970;2022-12-22T07:11:58;100071.84;;;5.80;100.00
39823;BME280;25499;53.958;10.970;2022-12-22T07:14:23;100066.75;;;5.89;100.00
39823;BME280;25499;53.958;10.970;2022-12-22T07:16:49;100069.34;;;5.91;100.00
39823;BME280;25499;53.958;10.970;2022-12-22T07:19:14;100070.22;;;5.94;100.00
39823;BME280;25499;53.958;10.970;2022-12-22T07:21:39;100070.19;;;5.90;100.00
39823;BME280;25499;53.958;10.970;2022-12-22T07:24:05;100059.94;;;5.97;100.00
39823;BME280;25499;53.958;10.970;2022-12-22T07:26:31;100050.41;;;5.95;100.00
39823;BME280;25499;53.958;10.970;2022-12-22T07:28:56;100055.56;;;5.87;100.00
39823;BME280;25499;53.958;10.970;2022-12-22T07:31:22;100057.28;;;5.94;100.00
39823;BME280;25499;53.958;10.970;2022-12-22T07:33:47;100047.91;;;6.03;100.00
39823;BME280;25499;53.958;10.970;2022-12-22T07:36:15;100053.81;;;5.94;100.00
39823;BME280;25499;53.958;10.970;2022-12-22T07:38:44;100052.13;;;5.94;100.00
39823;BME280;25499;53.958;10.970;2022-12-22T07:41:12;100046.09;;;5.95;100.00
39823;BME280;25499;53.958;10.970;2022-12-22T07:43:58;100044.38;;;5.94;100.00
39823;BME280;25499;53.958;10.970;2022-12-22T07:46:26;100037.53;;;6.06;100.00
39823;BME280;25499;53.958;10.970;2022-12-22T07:48:52;100040.97;;;5.98;100.00
39823;BME280;25499;53.958;10.970;2022-12-22T07:51:37;100046.16;;;6.02;100.00
39823;BME280;25499;53.958;10.970;2022-12-22T07:54:04;100040.97;;;5.97;100.00
39823;BME280;25499;53.958;10.970;2022-12-22T07:56:30;100042.63;;;5.93;100.00
39823;BME280;25499;53.958;10.970;2022-12-22T07:58:55;100046.09;;;5.92;100.00
39823;BME280;25499;53.958;10.970;2022-12-22T08:01:21;100050.41;;;5.95;100.00
39823;BME280;25499;53.958;10.970;2022-12-22T08:03:46;100047.84;;;5.96;100.00
39823;BME280;25499;53.958;10.970;2022-12-22T08:06:11;100047.88;;;6.06;100.00
39823;BME280;25499;53.958;10.970;2022-12-22T08:08:37;100038.44;;;6.12;100.00
39823;BME280;25499;53.958;10.970;2022-12-22T08:11:03;100033.25;;;6.05;100.00
39823;BME280;25499;53.958;10.970;2022-12-22T08:13:29;100035.84;;;6.11;100.00
39823;BME280;25499;53.958;10.970;2022-12-22T08:15:54;100036.72;;;6.16;100.00
39823;BME280;25499;53.958;10.970;2022-12-22T08:18:20;100034.13;;;6.16;100.00
39823;BME280;25499;53.958;10.970;2022-12-22T08:20:49;100040.19;;;6.15;100.00
39823;BME280;25499;53.958;10.970;2022-12-22T08:23:15;100035.84;;;6.05;100.00
39823;BME280;25499;53.958;10.970;2022-12-22T08:25:40;100040.16;;;6.12;100.00
39823;BME280;25499;53.958;10.970;2022-12-22T08:28:06;100042.75;;;6.12;100.00
39823;BME280;25499;53.958;10.970;2022-12-22T08:30:32;100039.31;;;6.18;100.00
39823;BME280;25499;53.958;10.970;2022-12-22T08:32:58;100044.47;;;6.08;100.00
39823;BME280;25499;53.958;10.970;2022-12-22T08:35:24;100043.63;;;6.17;100.00
39823;BME280;25499;53.958;10.970;2022-12-22T08:37:49;100044.50;;;6.19;100.00
39823;BME280;25499;53.958;10.970;2022-12-22T08:40:22;100043.59;;;6.12;100.00
39823;BME280;25499;53.958;10.970;2022-12-22T08:42:51;100050.53;;;6.16;100.00
39823;BME280;25499;53.958;10.970;2022-12-22T08:45:18;100051.38;;;6.14;100.00
39823;BME280;25499;53.958;10.970;2022-12-22T08:47:44;100051.34;;;6.11;100.00
39823;BME280;25499;53.958;10.970;2022-12-22T08:52:34;100045.34;;;6.15;100.00
39823;BME280;25499;53.958;10.970;2022-12-22T08:55:00;100041.91;;;6.13;100.00
39823;BME280;25499;53.958;10.970;2022-12-22T08:57:25;100048.81;;;6.23;100.00
39823;BME280;25499;53.958;10.970;2022-12-22T08:59:51;100047.06;;;6.14;100.00
39823;BME280;25499;53.958;10.970;2022-12-22T09:02:16;100053.09;;;6.12;100.00
39823;BME280;25499;53.958;10.970;2022-12-22T09:04:41;100052.22;;;6.18;100.00
39823;BME280;25499;53.958;10.970;2022-12-22T09:07:07;100052.25;;;6.21;100.00
39823;BME280;25499;53.958;10.970;2022-12-22T09:09:33;100058.28;;;6.18;100.00
39823;BME280;25499;53.958;10.970;2022-12-22T09:11:59;100053.13;;;6.21;100.00
39823;BME280;25499;53.958;10.970;2022-12-22T09:14:24;100059.09;;;6.12;100.00
39823;BME280;25499;53.958;10.970;2022-12-22T09:16:50;100053.97;;;6.20;100.00
39823;BME280;25499;53.958;10.970;2022-12-22T09:19:16;100055.69;;;6.16;100.00
39823;BME280;25499;53.958;10.970;2022-12-22T09:21:41;100052.28;;;6.28;100.00
39823;BME280;25499;53.958;10.970;2022-12-22T09:24:07;100053.94;;;6.14;100.00
39823;BME280;25499;53.958;10.970;2022-12-22T09:26:33;100046.22;;;6.17;100.00
39823;BME280;25499;53.958;10.970;2022-12-22T09:28:59;100055.69;;;6.16;100.00
39823;BME280;25499;53.958;10.970;2022-12-22T09:31:25;100052.22;;;6.16;100.00
39823;BME280;25499;53.958;10.970;2022-12-22T09:33:51;100051.38;;;6.14;100.00
39823;BME280;25499;53.958;10.970;2022-12-22T09:36:22;100051.38;;;6.14;100.00
39823;BME280;25499;53.958;10.970;2022-12-22T09:38:49;100057.41;;;6.19;100.00
39823;BME280;25499;53.958;10.970;2022-12-22T09:43:40;100054.84;;;6.21;100.00
39823;BME280;25499;53.958;10.970;2022-12-22T09:46:18;100051.38;;;6.19;100.00
39823;BME280;25499;53.958;10.970;2022-12-22T09:48:45;100044.47;;;6.16;100.00
39823;BME280;25499;53.958;10.970;2022-12-22T09:51:12;100042.78;;;6.24;100.00
39823;BME280;25499;53.958;10.970;2022-12-22T09:53:38;100047.97;;;6.27;100.00
39823;BME280;25499;53.958;10.970;2022-12-22T09:56:04;100037.63;;;6.30;100.00
39823;BME280;25499;53.958;10.970;2022-12-22T09:58:32;100033.34;;;6.26;100.00
39823;BME280;25499;53.958;10.970;2022-12-22T10:01:06;100033.38;;;6.42;100.00
39823;BME280;25499;53.958;10.970;2022-12-22T10:03:51;100032.47;;;6.43;100.00
39823;BME280;25499;53.958;10.970;2022-12-22T10:06:35;100032.50;;;6.37;100.00
39823;BME280;25499;53.958;10.970;2022-12-22T10:09:19;100032.47;;;6.40;100.00
39823;BME280;25499;53.958;10.970;2022-12-22T10:11:54;100034.22;;;6.44;100.00
39823;BME280;25499;53.958;10.970;2022-12-22T10:14:22;100028.19;;;6.48;100.00
39823;BME280;25499;53.958;10.970;2022-12-22T10:17:20;100032.50;;;6.55;100.00
39823;BME280;25499;53.958;10.970;2022-12-22T10:19:47;100034.25;;;6.56;100.00
39823;BME280;25499;53.958;10.970;2022-12-22T10:22:32;100033.38;;;6.52;100.00
39823;BME280;25499;53.958;10.970;2022-12-22T10:25:04;100037.69;;;6.58;100.00
39823;BME280;25499;53.958;10.970;2022-12-22T10:27:32;100030.78;;;6.51;100.00
39823;BME280;25499;53.958;10.970;2022-12-22T10:30:21;100037.69;;;6.52;100.00
39823;BME280;25499;53.958;10.970;2022-12-22T10:35:41;100047.16;;;6.44;100.00
39823;BME280;25499;53.958;10.970;2022-12-22T10:40:43;100047.16;;;6.47;100.00
39823;BME280;25499;53.958;10.970;2022-12-22T10:43:18;100041.13;;;6.48;100.00
39823;BME280;25499;53.958;10.970;2022-12-22T10:45:48;100035.97;;;6.43;100.00
39823;BME280;25499;53.958;10.970;2022-12-22T10:48:14;100039.41;;;6.44;100.00
39823;BME280;25499;53.958;10.970;2022-12-22T10:50:44;100037.69;;;6.52;100.00
39823;BME280;25499;53.958;10.970;2022-12-22T10:53:11;100036.81;;;6.53;100.00
39823;BME280;25499;53.958;10.970;2022-12-22T10:55:36;100040.25;;;6.55;100.00
39823;BME280;25499;53.958;10.970;2022-12-22T11:00:36;100048.91;;;6.60;100.00
39823;BME280;25499;53.958;10.970;2022-12-22T11:03:04;100042.84;;;6.58;100.00
39823;BME280;25499;53.958;10.970;2022-12-22T11:05:32;100045.44;;;6.52;100.00
39823;BME280;25499;53.958;10.970;2022-12-22T11:08:15;100048.00;;;6.55;100.00
39823;BME280;25499;53.958;10.970;2022-12-22T11:10:52;100048.00;;;6.55;100.00
39823;BME280;25499;53.958;10.970;2022-12-22T11:16:22;100037.69;;;6.61;100.00
39823;BME280;25499;53.958;10.970;2022-12-22T11:18:55;100040.31;;;6.70;100.00
39823;BME280;25499;53.958;10.970;2022-12-22T11:35:07;100023.53;;;8.26;100.00
39823;BME280;25499;53.958;10.970;2022-12-22T11:37:49;100017.69;;;7.85;100.00
39823;BME280;25499;53.958;10.970;2022-12-22T11:40:29;100018.59;;;7.76;100.00
39823;BME280;25499;53.958;10.970;2022-12-22T11:51:35;100014.22;;;9.19;100.00
39823;BME280;25499;53.958;10.970;2022-12-22T11:56:47;100009.91;;;9.18;100.00
39823;BME280;25499;53.958;10.970;2022-12-22T12:04:47;100007.00;;;8.48;100.00
39823;BME280;25499;53.958;10.970;2022-12-22T12:07:33;100002.69;;;8.50;100.00
39823;BME280;25499;53.958;10.970;2022-12-22T12:10:27;100008.78;;;8.37;100.00
39823;BME280;25499;53.958;10.970;2022-12-22T12:15:46;100021.91;;;8.09;100.00
39823;BME280;25499;53.958;10.970;2022-12-22T12:33:10;100049.53;;;10.15;100.00
39823;BME280;25499;53.958;10.970;2022-12-22T12:38:32;100063.22;;;10.34;100.00
39823;BME280;25499;53.958;10.970;2022-12-22T12:41:25;100064.13;;;10.26;100.00
39823;BME280;25499;53.958;10.970;2022-12-22T12:43:49;100069.81;;;9.88;100.00
39823;BME280;25499;53.958;10.970;2022-12-22T12:51:59;100074.91;;;9.12;100.00
39823;BME280;25499;53.958;10.970;2022-12-22T13:02:37;100083.13;;;8.47;100.00
39823;BME280;25499;53.958;10.970;2022-12-22T13:18:44;100110.81;;;8.44;100.00
39823;BME280;25499;53.958;10.970;2022-12-22T13:21:20;100108.19;;;8.45;100.00
39823;BME280;25499;53.958;10.970;2022-12-22T13:24:12;100108.22;;;8.33;100.00
39823;BME280;25499;53.958;10.970;2022-12-22T13:26:40;100107.44;;;8.20;100.00
39823;BME280;25499;53.958;10.970;2022-12-22T13:31:42;100112.56;;;8.26;100.00
39823;BME280;25499;53.958;10.970;2022-12-22T13:34:34;100105.69;;;8.17;100.00
39823;BME280;25499;53.958;10.970;2022-12-22T13:37:22;100111.78;;;8.01;100.00
39823;BME280;25499;53.958;10.970;2022-12-22T13:47:48;100131.75;;;7.48;100.00
39823;BME280;25499;53.958;10.970;2022-12-22T13:50:16;100132.63;;;7.49;100.00
39823;BME280;25499;53.958;10.970;2022-12-22T13:52:42;100137.78;;;7.52;100.00
39823;BME280;25499;53.958;10.970;2022-12-22T13:55:22;100143.84;;;7.52;100.00
39823;BME280;25499;53.958;10.970;2022-12-22T13:57:50;100143.84;;;7.46;100.00
39823;BME280;25499;53.958;10.970;2022-12-22T14:00:25;100132.63;;;7.42;100.00
39823;BME280;25499;53.958;10.970;2022-12-22T14:02:51;100143.00;;;7.33;100.00
39823;BME280;25499;53.958;10.970;2022-12-22T14:05:17;100136.06;;;7.24;100.00
39823;BME280;25499;53.958;10.970;2022-12-22T14:08:04;100140.41;;;7.24;100.00
39823;BME280;25499;53.958;10.970;2022-12-22T14:10:42;100146.41;;;7.23;100.00
39823;BME280;25499;53.958;10.970;2022-12-22T14:13:17;100135.19;;;7.18;100.00
39823;BME280;25499;53.958;10.970;2022-12-22T14:15:44;100147.28;;;7.02;100.00
39823;BME280;25499;53.958;10.970;2022-12-22T14:18:16;100151.59;;;7.07;100.00
39823;BME280;25499;53.958;10.970;2022-12-22T14:20:44;100158.44;;;6.85;100.00
39823;BME280;25499;53.958;10.970;2022-12-22T14:23:11;100162.75;;;6.79;100.00
39823;BME280;25499;53.958;10.970;2022-12-22T14:25:42;100158.41;;;6.68;100.00
39823;BME280;25499;53.958;10.970;2022-12-22T14:28:27;100167.88;;;6.65;100.00
39823;BME280;25499;53.958;10.970;2022-12-22T14:30:56;100168.78;;;6.78;100.00
39823;BME280;25499;53.958;10.970;2022-12-22T14:35:50;100179.13;;;6.75;100.00
39823;BME280;25499;53.958;10.970;2022-12-22T14:38:19;100182.56;;;6.73;100.00
39823;BME280;25499;53.958;10.970;2022-12-22T14:40:46;100183.41;;;6.69;100.00
39823;BME280;25499;53.958;10.970;2022-12-22T14:45:40;100190.31;;;6.67;100.00
39823;BME280;25499;53.958;10.970;2022-12-22T14:48:08;100191.16;;;6.66;100.00
39823;BME280;25499;53.958;10.970;2022-12-22T14:50:34;100191.16;;;6.68;100.00
39823;BME280;25499;53.958;10.970;2022-12-22T14:53:02;100191.13;;;6.62;100.00
39823;BME280;25499;53.958;10.970;2022-12-22T14:55:31;100200.59;;;6.58;100.00
39823;BME280;25499;53.958;10.970;2022-12-22T14:58:02;100203.22;;;6.61;100.00
39823;BME280;25499;53.958;10.970;2022-12-22T15:00:37;100196.31;;;6.62;100.00
39823;BME280;25499;53.958;10.970;2022-12-22T15:05:51;100201.50;;;6.59;100.00
39823;BME280;25499;53.958;10.970;2022-12-22T15:08:41;100191.03;;;6.35;100.00
39823;BME280;25499;53.958;10.970;2022-12-22T15:11:14;100206.53;;;6.34;100.00
39823;BME280;25499;53.958;10.970;2022-12-22T15:13:41;100203.94;;;6.31;100.00
39823;BME280;25499;53.958;10.970;2022-12-22T15:16:21;100195.22;;;6.12;100.00
39823;BME280;25499;53.958;10.970;2022-12-22T15:18:48;100190.84;;;6.02;100.00
39823;BME280;25499;53.958;10.970;2022-12-22T15:21:15;100194.97;;;5.78;100.00
39823;BME280;25499;53.958;10.970;2022-12-22T15:23:42;100199.16;;;5.67;100.00
39823;BME280;25499;53.958;10.970;2022-12-22T15:26:08;100213.97;;;5.88;100.00
39823;BME280;25499;53.958;10.970;2022-12-22T15:28:33;100208.84;;;5.91;100.00
39823;BME280;25499;53.958;10.970;2022-12-22T15:31:00;100216.56;;;5.89;100.00
39823;BME280;25499;53.958;10.970;2022-12-22T15:33:26;100219.25;;;5.98;100.00
39823;BME280;25499;53.958;10.970;2022-12-22T15:35:52;100221.00;;;6.01;100.00
39823;BME280;25499;53.958;10.970;2022-12-22T15:38:20;100214.94;;;6.01;100.00
39823;BME280;25499;53.958;10.970;2022-12-22T15:40:45;100216.69;;;6.02;100.00
39823;BME280;25499;53.958;10.970;2022-12-22T15:43:11;100226.19;;;6.09;100.00
39823;BME280;25499;53.958;10.970;2022-12-22T15:45:38;100220.25;;;6.22;100.00
39823;BME280;25499;53.958;10.970;2022-12-22T15:48:05;100221.94;;;6.15;100.00
39823;BME280;25499;53.958;10.970;2022-12-22T15:50:36;100229.72;;;6.19;100.00
39823;BME280;25499;53.958;10.970;2022-12-22T15:53:04;100229.72;;;6.20;100.00
39823;BME280;25499;53.958;10.970;2022-12-22T15:55:30;100239.19;;;6.18;100.00
39823;BME280;25499;53.958;10.970;2022-12-22T15:57:59;100239.06;;;6.00;100.00
39823;BME280;25499;53.958;10.970;2022-12-22T16:00:24;100232.16;;;5.98;100.00
39823;BME280;25499;53.958;10.970;2022-12-22T16:02:50;100245.97;;;6.04;100.00
39823;BME280;25499;53.958;10.970;2022-12-22T16:05:16;100247.66;;;5.98;100.00
39823;BME280;25499;53.958;10.970;2022-12-22T16:07:42;100245.97;;;6.02;100.00
39823;BME280;25499;53.958;10.970;2022-12-22T16:10:30;100236.50;;;6.06;100.00
39823;BME280;25499;53.958;10.970;2022-12-22T16:12:59;100237.34;;;5.98;100.00
39823;BME280;25499;53.958;10.970;2022-12-22T16:15:31;100239.84;;;5.94;100.00
39823;BME280;25499;53.958;10.970;2022-12-22T16:17:58;100241.56;;;5.93;100.00
39823;BME280;25499;53.958;10.970;2022-12-22T16:20:25;100235.53;;;5.91;100.00
39823;BME280;25499;53.958;10.970;2022-12-22T16:22:52;100248.53;;;5.96;100.00
39823;BME280;25499;53.958;10.970;2022-12-22T16:25:26;100249.41;;;5.98;100.00
39823;BME280;25499;53.958;10.970;2022-12-22T16:27:54;100242.44;;;5.95;100.00
39823;BME280;25499;53.958;10.970;2022-12-22T16:30:24;100240.78;;;5.97;100.00
39823;BME280;25499;53.958;10.970;2022-12-22T16:32:50;100239.81;;;5.89;100.00
39823;BME280;25499;53.958;10.970;2022-12-22T16:35:19;100241.53;;;5.90;100.00
39823;BME280;25499;53.958;10.970;2022-12-22T16:37:46;100238.03;;;5.81;100.00
39823;BME280;25499;53.958;10.970;2022-12-22T16:40:14;100240.59;;;5.82;100.00
39823;BME280;25499;53.958;10.970;2022-12-22T16:42:44;100240.66;;;5.87;100.00
39823;BME280;25499;53.958;10.970;2022-12-22T16:45:20;100244.09;;;5.83;100.00
39823;BME280;25499;53.958;10.970;2022-12-22T16:47:49;100246.59;;;5.75;100.00
39823;BME280;25499;53.958;10.970;2022-12-22T16:50:21;100245.75;;;5.76;100.00
39823;BME280;25499;53.958;10.970;2022-12-22T16:52:47;100253.53;;;5.84;100.00
39823;BME280;25499;53.958;10.970;2022-12-22T16:55:19;100242.34;;;5.83;100.00
39823;BME280;25499;53.958;10.970;2022-12-22T16:57:45;100237.16;;;5.80;100.00
39823;BME280;25499;53.958;10.970;2022-12-22T17:00:16;100237.13;;;5.77;100.00
39823;BME280;25499;53.958;10.970;2022-12-22T17:02:44;100238.06;;;5.85;100.00
39823;BME280;25499;53.958;10.970;2022-12-22T17:05:34;100231.19;;;5.84;100.00
39823;BME280;25499;53.958;10.970;2022-12-22T17:08:02;100238.94;;;5.90;100.00
39823;BME280;25499;53.958;10.970;2022-12-22T17:10:29;100241.59;;;5.95;100.00
39823;BME280;25499;53.958;10.970;2022-12-22T17:12:56;100243.38;;;5.97;100.00
39823;BME280;25499;53.958;10.970;2022-12-22T17:15:22;100243.34;;;5.96;100.00
39823;BME280;25499;53.958;10.970;2022-12-22T17:17:49;100232.25;;;6.08;100.00
39823;BME280;25499;53.958;10.970;2022-12-22T17:20:20;100240.84;;;6.07;100.00
39823;BME280;25499;53.958;10.970;2022-12-22T17:22:55;100234.75;;;5.98;100.00
39823;BME280;25499;53.958;10.970;2022-12-22T17:25:24;100239.09;;;6.07;100.00
39823;BME280;25499;53.958;10.970;2022-12-22T17:27:50;100239.09;;;6.01;100.00
39823;BME280;25499;53.958;10.970;2022-12-22T17:30:19;100239.94;;;6.02;100.00
39823;BME280;25499;53.958;10.970;2022-12-22T17:32:45;100243.41;;;6.07;100.00
39823;BME280;25499;53.958;10.970;2022-12-22T17:35:16;100246.06;;;6.16;100.00
39823;BME280;25499;53.958;10.970;2022-12-22T17:37:43;100238.31;;;6.14;100.00
39823;BME280;25499;53.958;10.970;2022-12-22T17:40:22;100240.94;;;6.21;100.00
39823;BME280;25499;53.958;10.970;2022-12-22T17:42:50;100241.75;;;6.15;100.00
39823;BME280;25499;53.958;10.970;2022-12-22T17:45:16;100237.47;;;6.17;100.00
39823;BME280;25499;53.958;10.970;2022-12-22T17:47:42;100241.78;;;6.18;100.00
39823;BME280;25499;53.958;10.970;2022-12-22T17:50:12;100242.59;;;6.14;100.00
39823;BME280;25499;53.958;10.970;2022-12-22T17:52:37;100244.38;;;6.18;100.00
39823;BME280;25499;53.958;10.970;2022-12-22T17:55:04;100246.97;;;6.23;100.00
39823;BME280;25499;53.958;10.970;2022-12-22T17:57:33;100234.06;;;6.21;100.00
39823;BME280;25499;53.958;10.970;2022-12-22T17:59:59;100237.47;;;6.19;100.00
39823;BME280;25499;53.958;10.970;2022-12-22T18:02:25;100223.69;;;6.23;100.00
39823;BME280;25499;53.958;10.970;2022-12-22T18:04:52;100234.00;;;6.15;100.00
39823;BME280;25499;53.958;10.970;2022-12-22T18:07:20;100227.13;;;6.17;100.00
39823;BME280;25499;53.958;10.970;2022-12-22T18:09:47;100224.47;;;6.11;100.00
39823;BME280;25499;53.958;10.970;2022-12-22T18:12:17;100219.31;;;6.11;100.00
39823;BME280;25499;53.958;10.970;2022-12-22T18:14:45;100225.31;;;6.05;100.00
39823;BME280;25499;53.958;10.970;2022-12-22T18:17:28;100228.81;;;6.12;100.00
39823;BME280;25499;53.958;10.970;2022-12-22T18:19:54;100220.16;;;6.07;100.00
39823;BME280;25499;53.958;10.970;2022-12-22T18:22:25;100227.91;;;6.05;100.00
39823;BME280;25499;53.958;10.970;2022-12-22T18:24:52;100227.88;;;6.04;100.00
39823;BME280;25499;53.958;10.970;2022-12-22T18:27:18;100230.53;;;6.10;100.00
39823;BME280;25499;53.958;10.970;2022-12-22T18:29:45;100227.03;;;6.02;100.00
39823;BME280;25499;53.958;10.970;2022-12-22T18:32:14;100232.22;;;6.05;100.00
39823;BME280;25499;53.958;10.970;2022-12-22T18:34:40;100234.03;;;6.16;100.00
39823;BME280;25499;53.958;10.970;2022-12-22T18:37:12;100232.25;;;6.14;100.00
39823;BME280;25499;53.958;10.970;2022-12-22T18:39:38;100225.28;;;5.97;100.00
39823;BME280;25499;53.958;10.970;2022-12-22T18:42:19;100225.31;;;6.04;100.00
39823;BME280;25499;53.958;10.970;2022-12-22T18:44:45;100219.34;;;6.09;100.00
39823;BME280;25499;53.958;10.970;2022-12-22T18:47:11;100213.25;;;6.06;100.00
39823;BME280;25499;53.958;10.970;2022-12-22T18:49:36;100221.03;;;6.10;100.00
39823;BME280;25499;53.958;10.970;2022-12-22T18:52:02;100225.34;;;6.10;100.00
39823;BME280;25499;53.958;10.970;2022-12-22T18:54:30;100222.75;;;6.07;100.00
39823;BME280;25499;53.958;10.970;2022-12-22T18:57:00;100235.69;;;6.10;100.00
39823;BME280;25499;53.958;10.970;2022-12-22T18:59:26;100233.09;;;6.07;100.00
39823;BME280;25499;53.958;10.970;2022-12-22T19:02:00;100232.25;;;6.08;100.00
39823;BME280;25499;53.958;10.970;2022-12-22T19:04:26;100221.81;;;5.98;100.00
39823;BME280;25499;53.958;10.970;2022-12-22T19:06:52;100215.81;;;6.00;100.00
39823;BME280;25499;53.958;10.970;2022-12-22T19:09:17;100207.28;;;6.13;100.00
39823;BME280;25499;53.958;10.970;2022-12-22T19:11:43;100213.16;;;5.93;100.00
39823;BME280;25499;53.958;10.970;2022-12-22T19:14:17;100208.91;;;5.97;100.00
39823;BME280;25499;53.958;10.970;2022-12-22T19:16:45;100201.91;;;5.88;100.00
39823;BME280;25499;53.958;10.970;2022-12-22T19:19:16;100205.41;;;5.95;100.00
39823;BME280;25499;53.958;10.970;2022-12-22T19:21:43;100201.91;;;5.88;100.00
39823;BME280;25499;53.958;10.970;2022-12-22T19:24:09;100207.94;;;5.84;100.00
39823;BME280;25499;53.958;10.970;2022-12-22T19:26:35;100204.56;;;5.94;100.00
39823;BME280;25499;53.958;10.970;2022-12-22T19:29:00;100202.78;;;5.87;100.00
39823;BME280;25499;53.958;10.970;2022-12-22T19:31:31;100213.13;;;5.90;100.00
39823;BME280;25499;53.958;10.970;2022-12-22T19:33:59;100209.63;;;5.84;100.00
39823;BME280;25499;53.958;10.970;2022-12-22T19:36:28;100210.47;;;5.78;100.00
39823;BME280;25499;53.958;10.970;2022-12-22T19:38:56;100208.78;;;5.85;100.00
39823;BME280;25499;53.958;10.970;2022-12-22T19:41:39;100202.72;;;5.78;100.00
39823;BME280;25499;53.958;10.970;2022-12-22T19:46:40;100184.59;;;5.75;100.00
39823;BME280;25499;53.958;10.970;2022-12-22T19:49:13;100191.44;;;5.68;100.00
39823;BME280;25499;53.958;10.970;2022-12-22T19:51:39;100199.19;;;5.68;100.00
39823;BME280;25499;53.958;10.970;2022-12-22T19:54:04;100195.78;;;5.71;100.00
39823;BME280;25499;53.958;10.970;2022-12-22T19:56:30;100196.53;;;5.59;100.00
39823;BME280;25499;53.958;10.970;2022-12-22T19:58:58;100195.66;;;5.55;100.00
39823;BME280;25499;53.958;10.970;2022-12-22T20:01:24;100206.81;;;5.53;100.00
39823;BME280;25499;53.958;10.970;2022-12-22T20:03:49;100199.16;;;5.62;100.00
39823;BME280;25499;53.958;10.970;2022-12-22T20:06:15;100200.81;;;5.54;100.00
39823;BME280;25499;53.958;10.970;2022-12-22T20:08:41;100201.63;;;5.51;100.00
39823;BME280;25499;53.958;10.970;2022-12-22T20:11:14;100200.78;;;5.52;100.00
39823;BME280;25499;53.958;10.970;2022-12-22T20:13:41;100208.53;;;5.52;100.00
39823;BME280;25499;53.958;10.970;2022-12-22T20:16:13;100213.69;;;5.51;100.00
39823;BME280;25499;53.958;10.970;2022-12-22T20:18:40;100204.19;;;5.45;100.00
39823;BME280;25499;53.958;10.970;2022-12-22T20:21:10;100202.47;;;5.47;100.00
39823;BME280;25499;53.958;10.970;2022-12-22T20:23:37;100211.13;;;5.52;100.00
39823;BME280;25499;53.958;10.970;2022-12-22T20:26:23;100206.75;;;5.45;100.00
39823;BME280;25499;53.958;10.970;2022-12-22T20:28:50;100211.91;;;5.45;100.00
39823;BME280;25499;53.958;10.970;2022-12-22T20:31:18;100213.66;;;5.48;100.00
39823;BME280;25499;53.958;10.970;2022-12-22T20:33:44;100217.09;;;5.45;100.00
39823;BME280;25499;53.958;10.970;2022-12-22T20:36:19;100208.47;;;5.46;100.00
39823;BME280;25499;53.958;10.970;2022-12-22T20:38:45;100210.13;;;5.39;100.00
39823;BME280;25499;53.958;10.970;2022-12-22T20:41:11;100211.00;;;5.40;100.00
39823;BME280;25499;53.958;10.970;2022-12-22T20:43:37;100211.81;;;5.34;100.00
39823;BME280;25499;53.958;10.970;2022-12-22T20:46:12;100215.34;;;5.44;100.00
39823;BME280;25499;53.958;10.970;2022-12-22T20:48:41;100214.50;;;5.45;100.00
39823;BME280;25499;53.958;10.970;2022-12-22T20:51:14;100214.38;;;5.31;100.00
39823;BME280;25499;53.958;10.970;2022-12-22T20:53:41;100210.94;;;5.32;100.00
39823;BME280;25499;53.958;10.970;2022-12-22T20:58:57;100207.44;;;5.27;100.00
39823;BME280;25499;53.958;10.970;2022-12-22T21:01:23;100204.88;;;5.27;100.00
39823;BME280;25499;53.958;10.970;2022-12-22T21:03:49;100204.88;;;5.29;100.00
